createdAt,value
2018-12-06T00:00:31.658Z,8.43
2018-12-06T00:02:59.182Z,8.13
2018-12-06T00:05:26.723Z,8.77
2018-12-06T00:08:06.104Z,8.57
2018-12-06T00:10:34.539Z,8.17
2018-12-06T00:13:02.271Z,7.77
2018-12-06T00:15:29.883Z,8.37
2018-12-06T00:17:57.387Z,9.17
2018-12-06T00:20:25.061Z,7.00
2018-12-06T00:22:52.614Z,9.80
2018-12-06T00:25:20.170Z,8.17
2018-12-06T00:27:47.701Z,8.33
2018-12-06T00:30:41.502Z,9.33
2018-12-06T00:33:09.237Z,6.70
2018-12-06T00:35:36.817Z,7.63
2018-12-06T00:38:04.485Z,7.50
2018-12-06T00:40:33.829Z,8.13
2018-12-06T00:43:01.406Z,8.43
2018-12-06T00:45:28.978Z,8.63
2018-12-06T00:47:56.633Z,9.17
2018-12-06T00:50:24.863Z,9.53
2018-12-06T00:52:53.390Z,11.03
2018-12-06T00:55:20.979Z,11.30
2018-12-06T00:57:48.540Z,9.97
2018-12-06T01:00:16.177Z,8.03
2018-12-06T01:02:45.327Z,8.17
2018-12-06T01:05:13.125Z,9.83
2018-12-06T01:07:40.636Z,9.80
2018-12-06T01:10:08.284Z,9.30
2018-12-06T01:12:35.865Z,9.37
2018-12-06T01:15:03.587Z,9.20
2018-12-06T01:17:31.174Z,8.80
2018-12-06T01:19:58.719Z,9.73
2018-12-06T01:22:26.301Z,10.17
2018-12-06T01:24:53.845Z,10.70
2018-12-06T01:27:21.405Z,9.30
2018-12-06T01:29:51.230Z,8.77
2018-12-06T01:32:18.783Z,10.07
2018-12-06T01:34:46.391Z,10.17
2018-12-06T01:37:14.002Z,8.60
2018-12-06T01:39:41.669Z,9.50
2018-12-06T01:42:09.252Z,9.90
2018-12-06T01:44:36.821Z,9.00
2018-12-06T01:47:04.370Z,11.37
2018-12-06T01:49:32.357Z,9.90
2018-12-06T01:51:59.981Z,9.70
2018-12-06T01:54:27.557Z,10.30
2018-12-06T01:56:55.096Z,11.83
2018-12-06T01:59:22.619Z,12.80
2018-12-06T02:01:51.122Z,11.33
2018-12-06T02:04:18.706Z,11.37
2018-12-06T02:06:46.366Z,10.77
2018-12-06T02:09:14.902Z,10.37
2018-12-06T02:11:42.536Z,10.37
2018-12-06T02:14:10.170Z,10.80
2018-12-06T02:16:38.714Z,12.33
2018-12-06T02:19:07.327Z,11.87
2018-12-06T02:21:35.547Z,12.73
2018-12-06T02:24:03.208Z,12.60
2018-12-06T02:26:30.801Z,11.13
2018-12-06T02:28:59.100Z,13.27
2018-12-06T02:31:26.811Z,11.13
2018-12-06T02:33:54.474Z,11.10
2018-12-06T02:36:22.106Z,11.90
2018-12-06T02:38:49.694Z,10.37
2018-12-06T02:41:17.228Z,11.43
2018-12-06T02:43:44.981Z,10.67
2018-12-06T02:46:12.492Z,11.67
2018-12-06T02:48:40.030Z,12.53
2018-12-06T02:51:07.620Z,11.10
2018-12-06T02:53:35.165Z,12.30
2018-12-06T02:56:03.597Z,11.10
2018-12-06T02:58:31.128Z,11.63
2018-12-06T03:00:58.714Z,12.77
2018-12-06T03:03:26.223Z,13.07
2018-12-06T03:05:53.760Z,12.23
2018-12-06T03:08:22.241Z,11.07
2018-12-06T03:10:49.755Z,11.40
2018-12-06T03:13:17.309Z,13.30
2018-12-06T03:15:45.629Z,11.73
2018-12-06T03:18:14.066Z,12.60
2018-12-06T03:20:41.560Z,11.97
2018-12-06T03:23:09.096Z,10.60
2018-12-06T03:25:36.762Z,9.63
2018-12-06T03:28:04.294Z,10.10
2018-12-06T03:30:31.856Z,10.80
2018-12-06T03:32:59.472Z,12.53
2018-12-06T03:35:27.166Z,10.27
2018-12-06T03:37:54.758Z,9.57
2018-12-06T03:40:22.286Z,9.97
2018-12-06T03:42:49.838Z,10.10
2018-12-06T03:45:17.412Z,8.97
2018-12-06T03:47:44.971Z,9.90
2018-12-06T03:50:12.698Z,8.77
2018-12-06T03:52:40.289Z,12.40
2018-12-06T03:55:07.883Z,11.20
2018-12-06T03:57:35.504Z,10.63
2018-12-06T04:00:03.531Z,10.30
2018-12-06T04:02:31.033Z,9.83
2018-12-06T04:04:58.615Z,10.60
2018-12-06T04:07:26.775Z,10.87
2018-12-06T04:09:54.676Z,11.70
2018-12-06T04:12:22.227Z,13.00
2018-12-06T04:14:49.790Z,12.37
2018-12-06T04:17:17.710Z,13.27
2018-12-06T04:19:45.246Z,11.10
2018-12-06T04:22:12.943Z,10.80
2018-12-06T04:24:40.558Z,11.10
2018-12-06T04:27:08.154Z,11.40
2018-12-06T04:29:37.389Z,10.93
2018-12-06T04:32:05.051Z,10.63
2018-12-06T04:34:32.609Z,11.53
2018-12-06T04:37:00.276Z,10.33
2018-12-06T04:39:27.980Z,10.60
2018-12-06T04:41:55.512Z,11.27
2018-12-06T04:44:23.055Z,9.70
2018-12-06T04:46:51.592Z,10.33
2018-12-06T04:49:19.200Z,10.27
2018-12-06T04:51:46.835Z,10.13
2018-12-06T04:54:14.524Z,11.33
2018-12-06T04:56:42.123Z,10.87
2018-12-06T04:59:09.651Z,12.57
2018-12-06T05:01:37.264Z,10.97
2018-12-06T05:04:05.543Z,11.40
2018-12-06T05:06:33.846Z,11.33
2018-12-06T05:09:02.135Z,11.70
2018-12-06T05:11:29.778Z,11.80
2018-12-06T05:13:57.360Z,11.57
2018-12-06T05:16:27.044Z,9.90
2018-12-06T05:18:54.625Z,10.13
2018-12-06T05:21:22.154Z,10.47
2018-12-06T05:23:49.724Z,10.07
2018-12-06T05:26:17.314Z,10.13
2018-12-06T05:28:45.437Z,12.87
2018-12-06T05:31:13.632Z,11.47
2018-12-06T05:33:41.488Z,10.67
2018-12-06T05:36:09.054Z,10.87
2018-12-06T05:38:36.859Z,10.33
2018-12-06T05:41:04.922Z,11.27
2018-12-06T05:43:33.291Z,9.40
2018-12-06T05:46:01.373Z,11.07
2018-12-06T05:48:28.982Z,12.80
2018-12-06T05:50:56.506Z,10.53
2018-12-06T05:53:24.671Z,11.67
2018-12-06T05:55:52.613Z,10.83
2018-12-06T05:58:20.306Z,11.33
2018-12-06T06:00:48.011Z,10.60
2018-12-06T06:03:15.626Z,10.57
2018-12-06T06:05:43.770Z,13.20
2018-12-06T06:08:11.934Z,11.87
2018-12-06T06:10:39.671Z,11.27
2018-12-06T06:13:07.513Z,11.43
2018-12-06T06:15:35.173Z,12.03
2018-12-06T06:18:02.943Z,13.27
2018-12-06T06:20:30.646Z,11.27
2018-12-06T06:22:58.164Z,12.73
2018-12-06T06:25:26.250Z,11.90
2018-12-06T06:27:53.776Z,14.03
2018-12-06T06:30:22.237Z,12.13
2018-12-06T06:32:49.745Z,13.70
2018-12-06T06:35:17.711Z,14.47
2018-12-06T06:37:45.238Z,13.43
2018-12-06T06:40:13.432Z,14.17
2018-12-06T06:42:42.142Z,13.10
2018-12-06T06:45:11.332Z,13.43
2018-12-06T06:47:38.925Z,12.47
2018-12-06T06:50:06.558Z,14.27
2018-12-06T06:52:34.602Z,13.30
2018-12-06T06:55:03.409Z,13.77
2018-12-06T06:57:33.434Z,14.83
2018-12-06T07:00:03.016Z,13.10
2018-12-06T07:02:32.050Z,12.77
2018-12-06T07:04:59.700Z,14.50
2018-12-06T07:07:28.755Z,14.47
2018-12-06T07:09:57.052Z,13.63
2018-12-06T07:12:25.513Z,14.37
2018-12-06T07:14:55.303Z,15.17
2018-12-06T07:17:28.066Z,15.50
2018-12-06T07:20:01.423Z,14.80
2018-12-06T07:22:33.613Z,15.77
2018-12-06T07:25:01.726Z,14.53
2018-12-06T07:27:34.709Z,13.73
2018-12-06T07:30:12.193Z,15.97
2018-12-06T07:32:37.644Z,13.90
2018-12-06T07:35:05.495Z,13.53
2018-12-06T07:37:33.688Z,16.13
2018-12-06T07:40:01.217Z,16.97
2018-12-06T07:42:28.835Z,15.20
2018-12-06T07:44:56.384Z,17.27
2018-12-06T07:47:25.467Z,16.80
2018-12-06T07:49:53.017Z,16.57
2018-12-06T07:52:20.610Z,17.90
2018-12-06T07:54:49.119Z,16.87
2018-12-06T07:59:58.078Z,18.47
2018-12-06T08:02:41.877Z,16.43
2018-12-06T08:08:26.710Z,16.87
2018-12-06T08:10:54.393Z,16.37
2018-12-06T08:13:23.040Z,19.07
2018-12-06T08:15:50.741Z,18.63
2018-12-06T08:18:18.369Z,16.13
2018-12-06T08:20:46.435Z,17.07
2018-12-06T08:23:14.006Z,16.80
2018-12-06T08:25:42.221Z,16.50
2018-12-06T08:28:09.873Z,17.10
2018-12-06T08:30:37.499Z,17.17
2018-12-06T08:33:05.053Z,17.97
2018-12-06T08:35:33.409Z,16.97
2018-12-06T08:38:02.357Z,17.73
2018-12-06T08:40:31.463Z,16.90
2018-12-06T08:42:59.082Z,17.17
2018-12-06T08:45:30.379Z,18.30
2018-12-06T08:47:59.660Z,17.67
2018-12-06T08:50:28.567Z,17.70
2018-12-06T08:52:56.720Z,17.40
2018-12-06T08:55:24.310Z,17.43
2018-12-06T08:57:53.076Z,17.00
2018-12-06T09:00:21.990Z,18.30
2018-12-06T09:02:49.551Z,19.33
2018-12-06T09:05:18.339Z,16.47
2018-12-06T09:07:45.865Z,17.50
2018-12-06T09:10:14.214Z,18.97
2018-12-06T09:12:41.947Z,17.47
2018-12-06T09:15:10.111Z,16.20
2018-12-06T09:17:37.647Z,17.80
2018-12-06T09:20:05.591Z,15.63
2018-12-06T09:22:33.179Z,16.43
2018-12-06T09:25:00.740Z,17.33
2018-12-06T09:27:28.589Z,15.47
2018-12-06T09:29:57.043Z,16.50
2018-12-06T09:32:25.116Z,16.70
2018-12-06T09:34:53.720Z,15.27
2018-12-06T09:37:22.633Z,14.40
2018-12-06T09:39:55.968Z,15.33
2018-12-06T09:42:25.704Z,15.83
2018-12-06T09:44:54.269Z,14.87
2018-12-06T09:47:21.779Z,14.47
2018-12-06T09:49:52.341Z,13.77
2018-12-06T09:52:21.785Z,13.43
2018-12-06T09:54:49.849Z,15.50
2018-12-06T09:57:20.225Z,13.00
2018-12-06T09:59:47.846Z,13.33
2018-12-06T10:02:17.182Z,11.83
2018-12-06T10:04:48.800Z,12.33
2018-12-06T10:07:18.495Z,13.13
2018-12-06T10:09:46.253Z,12.23
2018-12-06T10:12:13.763Z,12.20
2018-12-06T10:14:41.425Z,12.57
2018-12-06T10:17:10.926Z,10.77
2018-12-06T10:19:39.582Z,11.60
2018-12-06T10:22:07.146Z,11.30
2018-12-06T10:24:35.604Z,11.07
2018-12-06T10:27:03.926Z,11.43
2018-12-06T10:29:35.423Z,11.10
2018-12-06T10:32:02.991Z,11.00
2018-12-06T10:34:33.371Z,12.47
2018-12-06T10:37:01.080Z,10.70
2018-12-06T10:39:30.120Z,9.33
2018-12-06T10:41:57.841Z,10.40
2018-12-06T10:44:29.660Z,9.67
2018-12-06T10:46:58.286Z,10.27
2018-12-06T10:49:26.734Z,9.77
2018-12-06T10:51:55.326Z,9.90
2018-12-06T10:54:22.838Z,8.97
2018-12-06T10:56:51.896Z,9.37
2018-12-06T10:59:19.454Z,9.03
2018-12-06T11:01:47.012Z,9.00
2018-12-06T11:04:14.582Z,9.87
2018-12-06T11:06:42.255Z,8.10
2018-12-06T11:09:09.980Z,7.70
2018-12-06T11:11:38.333Z,8.10
2018-12-06T11:14:06.380Z,7.93
2018-12-06T11:16:37.331Z,7.90
2018-12-06T11:19:05.774Z,7.93
2018-12-06T11:21:33.361Z,8.50
2018-12-06T11:24:00.922Z,9.23
2018-12-06T11:26:28.476Z,9.07
2018-12-06T11:28:56.057Z,8.67
2018-12-06T11:31:24.267Z,9.07
2018-12-06T11:33:51.800Z,9.23
2018-12-06T11:36:19.970Z,9.60
2018-12-06T11:38:47.644Z,9.83
2018-12-06T11:41:16.100Z,9.20
2018-12-06T11:43:43.769Z,10.27
2018-12-06T11:46:11.396Z,9.70
2018-12-06T11:48:38.941Z,10.37
2018-12-06T11:51:06.481Z,10.30
2018-12-06T11:53:34.686Z,9.63
2018-12-06T11:56:03.713Z,12.07
2018-12-06T11:58:36.771Z,10.07
2018-12-06T12:01:05.505Z,9.30
2018-12-06T12:03:33.178Z,13.20
2018-12-06T12:06:00.926Z,10.70
2018-12-06T12:08:28.456Z,10.50
2018-12-06T12:10:56.658Z,9.90
2018-12-06T12:13:24.980Z,9.90
2018-12-06T12:15:55.023Z,12.30
2018-12-06T12:18:25.073Z,12.13
2018-12-06T12:20:56.624Z,11.40
2018-12-06T12:23:27.664Z,12.93
2018-12-06T12:25:55.844Z,13.43
2018-12-06T12:28:28.544Z,11.73
2018-12-06T12:30:56.119Z,11.40
2018-12-06T12:33:25.105Z,10.97
2018-12-06T12:35:55.643Z,11.27
2018-12-06T12:38:23.756Z,13.13
2018-12-06T12:40:52.608Z,11.83
2018-12-06T12:43:22.015Z,12.50
2018-12-06T12:45:51.617Z,14.70
2018-12-06T12:48:20.245Z,15.93
2018-12-06T12:50:50.892Z,13.90
2018-12-06T12:53:19.266Z,13.67
2018-12-06T12:55:48.276Z,13.47
2018-12-06T12:58:18.698Z,13.10
2018-12-06T13:00:47.093Z,14.50
2018-12-06T13:03:18.030Z,12.40
2018-12-06T13:05:47.407Z,13.53
2018-12-06T13:08:19.998Z,14.93
2018-12-06T13:10:48.311Z,14.10
2018-12-06T13:13:16.224Z,13.20
2018-12-06T13:15:44.056Z,14.83
2018-12-06T13:18:11.876Z,14.97
2018-12-06T13:20:39.381Z,13.67
2018-12-06T13:23:06.879Z,12.97
2018-12-06T13:25:35.048Z,13.80
2018-12-06T13:28:03.603Z,13.23
2018-12-06T13:30:33.242Z,11.10
2018-12-06T13:33:01.065Z,11.83
2018-12-06T13:35:28.804Z,13.13
2018-12-06T13:37:56.382Z,12.00
2018-12-06T13:40:24.091Z,13.23
2018-12-06T13:42:52.045Z,11.70
2018-12-06T13:45:19.643Z,11.97
2018-12-06T13:47:47.242Z,13.57
2018-12-06T13:50:14.912Z,12.23
2018-12-06T13:52:42.416Z,11.53
2018-12-06T13:55:11.850Z,11.13
2018-12-06T13:57:39.458Z,11.30
2018-12-06T14:00:07.356Z,10.57
2018-12-06T14:02:34.970Z,9.90
2018-12-06T14:05:02.487Z,10.83
2018-12-06T14:07:30.136Z,12.10
2018-12-06T14:09:57.743Z,9.90
2018-12-06T14:12:26.194Z,10.63
2018-12-06T14:14:53.807Z,10.70
2018-12-06T14:17:21.376Z,11.53
2018-12-06T14:19:48.986Z,11.33
2018-12-06T14:22:16.575Z,11.03
2018-12-06T14:24:44.173Z,10.20
2018-12-06T14:27:12.886Z,11.23
2018-12-06T14:29:40.454Z,10.30
2018-12-06T14:32:07.974Z,11.43
2018-12-06T14:34:35.537Z,9.90
2018-12-06T14:37:03.054Z,11.23
2018-12-06T14:39:30.801Z,10.13
2018-12-06T14:41:58.369Z,9.80
2018-12-06T14:44:26.123Z,10.40
2018-12-06T14:46:53.731Z,10.20
2018-12-06T14:49:21.277Z,9.30
2018-12-06T14:51:49.269Z,8.77
2018-12-06T14:54:16.823Z,9.20
2018-12-06T14:56:44.498Z,8.50
2018-12-06T14:59:12.062Z,8.27
2018-12-06T15:01:39.668Z,8.63
2018-12-06T15:04:07.269Z,9.43
2018-12-06T15:06:37.729Z,9.70
2018-12-06T15:09:08.616Z,8.90
2018-12-06T15:11:37.167Z,8.73
2018-12-06T15:14:04.775Z,8.57
2018-12-06T15:16:32.305Z,8.47
2018-12-06T15:18:59.849Z,8.03
2018-12-06T15:21:27.549Z,8.83
2018-12-06T15:23:55.083Z,7.67
2018-12-06T15:26:22.933Z,8.13
2018-12-06T15:28:51.285Z,7.93
2018-12-06T15:31:20.198Z,8.33
2018-12-06T15:33:47.730Z,8.53
2018-12-06T15:36:15.623Z,8.57
2018-12-06T15:38:43.336Z,9.37
2018-12-06T15:41:12.148Z,9.27
2018-12-06T15:43:39.861Z,9.73
2018-12-06T15:46:07.467Z,9.87
2018-12-06T15:48:35.061Z,10.07
2018-12-06T15:51:03.099Z,11.03
2018-12-06T15:53:30.676Z,10.83
2018-12-06T15:55:58.932Z,11.30
2018-12-06T15:58:28.426Z,11.67
2018-12-06T16:00:56.858Z,11.33
2018-12-06T16:03:24.463Z,11.70
2018-12-06T16:05:51.997Z,11.17
2018-12-06T16:08:19.752Z,12.00
2018-12-06T16:10:49.242Z,13.07
2018-12-06T16:13:17.101Z,13.30
2018-12-06T16:15:44.759Z,13.30
2018-12-06T16:18:12.442Z,13.17
2018-12-06T16:20:40.122Z,13.00
2018-12-06T16:23:07.899Z,13.70
2018-12-06T16:25:35.542Z,12.50
2018-12-06T16:28:03.227Z,11.53
2018-12-06T16:30:30.766Z,11.63
2018-12-06T16:32:59.181Z,11.13
2018-12-06T16:35:28.564Z,11.80
2018-12-06T16:37:57.124Z,11.20
2018-12-06T16:40:25.625Z,11.77
2018-12-06T16:42:53.442Z,11.77
2018-12-06T16:45:21.072Z,12.87
2018-12-06T16:47:48.639Z,14.53
2018-12-06T16:50:16.173Z,15.63
2018-12-06T16:52:43.776Z,14.27
2018-12-06T16:55:11.563Z,15.63
2018-12-06T16:57:39.149Z,16.17
2018-12-06T17:00:11.285Z,15.90
2018-12-06T17:02:39.021Z,19.27
2018-12-06T17:05:06.680Z,18.37
2018-12-06T17:07:34.208Z,19.80
2018-12-06T17:10:02.726Z,20.20
2018-12-06T17:12:30.384Z,20.30
2018-12-06T17:14:59.062Z,21.50
2018-12-06T17:17:27.628Z,21.40
2018-12-06T17:19:59.225Z,20.07
2018-12-06T17:22:27.243Z,22.33
2018-12-06T17:24:54.886Z,19.93
2018-12-06T17:27:22.679Z,21.50
2018-12-06T17:29:50.261Z,21.60
2018-12-06T17:32:20.980Z,22.60
2018-12-06T17:34:48.652Z,23.70
2018-12-06T17:37:17.500Z,24.10
2018-12-06T17:39:45.613Z,22.13
2018-12-06T17:42:13.378Z,23.30
2018-12-06T17:47:24.625Z,21.87
2018-12-06T17:49:55.195Z,22.00
2018-12-06T17:52:27.066Z,23.07
2018-12-06T17:54:55.256Z,22.73
2018-12-06T17:57:23.843Z,22.27
2018-12-06T17:59:57.620Z,22.97
2018-12-06T18:02:28.117Z,23.10
2018-12-06T18:04:56.441Z,22.50
2018-12-06T18:07:24.851Z,22.07
2018-12-06T18:09:52.728Z,24.73
2018-12-06T18:12:20.739Z,25.23
2018-12-06T18:14:49.844Z,24.87
2018-12-06T18:17:17.426Z,25.23
2018-12-06T18:19:47.920Z,23.23
2018-12-06T18:22:15.579Z,24.87
2018-12-06T18:24:43.177Z,22.23
2018-12-06T18:27:10.914Z,25.50
2018-12-06T18:29:38.461Z,23.30
2018-12-06T18:32:06.117Z,20.83
2018-12-06T18:34:33.741Z,23.03
2018-12-06T18:37:02.901Z,22.90
2018-12-06T18:39:31.994Z,21.57
2018-12-06T18:41:59.652Z,19.97
2018-12-06T18:44:27.268Z,22.03
2018-12-06T18:46:55.573Z,21.13
2018-12-06T18:49:24.094Z,21.90
2018-12-06T18:51:51.640Z,23.80
2018-12-06T18:54:19.143Z,20.57
2018-12-06T18:56:47.514Z,20.37
2018-12-06T18:59:15.422Z,22.33
2018-12-06T19:01:46.018Z,22.13
2018-12-06T19:04:14.224Z,23.30
2018-12-06T19:06:42.017Z,22.23
2018-12-06T19:09:10.416Z,23.03
2018-12-06T19:11:37.996Z,20.80
2018-12-06T19:14:06.607Z,21.77
2018-12-06T19:16:34.161Z,20.57
2018-12-06T19:19:01.774Z,19.73
2018-12-06T19:21:29.719Z,20.90
2018-12-06T19:23:57.249Z,19.23
2018-12-06T19:26:24.887Z,19.27
2018-12-06T19:28:52.395Z,20.63
2018-12-06T19:31:20.007Z,21.17
2018-12-06T19:33:47.571Z,19.13
2018-12-06T19:36:15.100Z,18.07
2018-12-06T19:38:42.684Z,22.67
2018-12-06T19:41:10.206Z,18.80
2018-12-06T19:43:38.372Z,17.43
2018-12-06T19:46:06.532Z,25.33
2018-12-06T19:48:34.095Z,20.60
2018-12-06T19:51:01.623Z,19.87
2018-12-06T19:53:29.214Z,22.60
2018-12-06T19:55:56.806Z,18.57
2018-12-06T19:58:24.411Z,16.63
2018-12-06T20:00:51.976Z,15.63
2018-12-06T20:03:19.952Z,17.43
2018-12-06T20:05:47.902Z,16.03
2018-12-06T20:08:16.768Z,16.63
2018-12-06T20:10:44.336Z,17.50
2018-12-06T20:13:11.887Z,19.10
2018-12-06T20:15:39.907Z,19.97
2018-12-06T20:18:07.625Z,16.60
2018-12-06T20:20:35.148Z,15.73
2018-12-06T20:23:03.258Z,15.83
2018-12-06T20:25:30.889Z,16.40
2018-12-06T20:27:58.481Z,20.90
2018-12-06T20:30:26.144Z,14.97
2018-12-06T20:32:53.704Z,15.97
2018-12-06T20:35:21.214Z,16.63
2018-12-06T20:37:48.745Z,16.17
2018-12-06T20:40:16.299Z,16.13
2018-12-06T20:42:43.941Z,15.60
2018-12-06T20:45:11.728Z,14.40
2018-12-06T20:47:39.277Z,14.53
2018-12-06T20:50:06.875Z,13.93
2018-12-06T20:52:35.387Z,13.33
2018-12-06T20:55:03.124Z,13.40
2018-12-06T20:57:37.220Z,14.97
2018-12-06T21:00:02.029Z,19.30
2018-12-06T21:02:29.763Z,13.20
2018-12-06T21:04:57.369Z,13.67
2018-12-06T21:07:25.343Z,12.40
2018-12-06T21:09:53.113Z,13.23
2018-12-06T21:12:20.663Z,12.97
2018-12-06T21:14:48.582Z,12.67
2018-12-06T21:17:16.117Z,12.70
2018-12-06T21:19:43.689Z,13.23
2018-12-06T21:22:11.436Z,14.30
2018-12-06T21:24:38.981Z,15.27
2018-12-06T21:27:06.998Z,14.43
2018-12-06T21:29:34.899Z,14.10
2018-12-06T21:32:02.962Z,13.53
2018-12-06T21:34:30.967Z,13.17
2018-12-06T21:36:58.529Z,12.50
2018-12-06T21:39:26.077Z,14.53
2018-12-06T21:41:53.641Z,12.63
2018-12-06T21:44:21.692Z,13.00
2018-12-06T21:46:49.298Z,12.50
2018-12-06T21:49:16.913Z,12.67
2018-12-06T21:51:44.513Z,13.70
2018-12-06T21:54:12.191Z,12.77
2018-12-06T21:56:39.889Z,12.23
2018-12-06T21:59:07.613Z,11.87
2018-12-06T22:01:35.244Z,12.47
2018-12-06T22:04:04.200Z,12.23
2018-12-06T22:06:31.860Z,12.10
2018-12-06T22:08:59.666Z,12.00
2018-12-06T22:11:28.813Z,12.67
2018-12-06T22:13:56.450Z,11.53
2018-12-06T22:16:24.037Z,11.87
2018-12-06T22:18:51.608Z,11.87
2018-12-06T22:21:19.175Z,13.27
2018-12-06T22:23:47.080Z,13.00
2018-12-06T22:26:14.751Z,12.77
2018-12-06T22:28:42.723Z,13.10
2018-12-06T22:31:10.335Z,13.03
2018-12-06T22:33:37.900Z,13.97
2018-12-06T22:36:06.734Z,13.17
2018-12-06T22:38:35.334Z,15.33
2018-12-06T22:41:04.463Z,14.80
2018-12-06T22:43:33.030Z,13.50
2018-12-06T22:46:00.971Z,15.67
2018-12-06T22:48:28.664Z,13.80
2018-12-06T22:50:56.377Z,14.83
2018-12-06T22:53:24.931Z,13.90
2018-12-06T22:55:52.684Z,13.73
2018-12-06T22:58:20.266Z,14.03
2018-12-06T23:00:50.824Z,13.83
2018-12-06T23:03:18.551Z,13.87
2018-12-06T23:05:46.101Z,15.00
2018-12-06T23:08:13.631Z,13.80
2018-12-06T23:10:42.134Z,13.20
2018-12-06T23:13:10.175Z,14.37
2018-12-06T23:15:37.693Z,14.70
2018-12-06T23:18:05.202Z,14.13
2018-12-06T23:20:32.735Z,13.87
2018-12-06T23:23:00.294Z,13.80
2018-12-06T23:25:27.881Z,15.37
2018-12-06T23:27:55.425Z,15.57
2018-12-06T23:30:23.983Z,14.20
2018-12-06T23:32:51.572Z,15.03
2018-12-06T23:35:19.160Z,15.80
2018-12-06T23:37:46.727Z,15.93
2018-12-06T23:40:14.295Z,16.07
2018-12-06T23:42:41.962Z,16.20
2018-12-06T23:45:09.627Z,19.50
2018-12-06T23:47:38.403Z,17.47
2018-12-06T23:50:06.506Z,17.47
2018-12-06T23:52:34.886Z,16.37
2018-12-06T23:55:02.543Z,18.30
2018-12-06T23:57:30.815Z,16.80
2018-12-06T23:59:58.422Z,18.47
